Terminal Aerodrome Forecast
Issued by NWS Melbourne, FL

Home | Current Version | Previous Version | Text Only | Print | Product List | Glossary On
Versions: 1 2 3 4 5 6 7 8 9 10 11 12 13 14 15 16 17 18 19 20 21 22 23 24 25 26 27 28 29 30
000
FTUS42 KMLB 272100 AAB
TAFMCO
TAF AMD
KMCO 272100Z 2721/2818 28015KT P6SM -SHRA SCT035 BKN050
     FM280000 28013KT P6SM VCSH BKN035
     FM280300 30011KT P6SM BKN250=

USA.gov is the U.S. government's official web portal to all federal, state and local government web resources and services.